Time;durP1;ratioP1;P1;durP2;ratioP2;P2;SDS_P1;SDS_P2;PMS_P1;PMS_P2;Temp;Humidity;BMP_temperature;BMP_pressure;BME280_temperature;BME280_humidity;BME280_pressure;Samples;Min_cycle;Max_cycle;Signal;HPM_P1;HPM_P2
2023/11/05 00:01:39;;;;;;;6.75;3.72;;;;;;;9.40;100.00;99108.00;6121734;23;20029;-85
2023/11/05 00:04:05;;;;;;;5.53;3.17;;;;;;;8.85;100.00;99096.69;6121758;23;20017;-85
2023/11/05 00:06:34;;;;;;;8.50;3.92;;;;;;;8.65;100.00;99110.31;6121935;23;20014;-83
2023/11/05 00:09:00;;;;;;;13.57;8.00;;;;;;;8.48;100.00;99106.72;6121532;23;20014;-84
2023/11/05 00:11:25;;;;;;;10.30;4.65;;;;;;;8.37;100.00;99118.88;6121634;23;20028;-83
2023/11/05 00:13:51;;;;;;;7.63;3.53;;;;;;;8.33;100.00;99109.75;6122192;23;20044;-84
2023/11/05 00:16:16;;;;;;;6.63;3.50;;;;;;;7.79;100.00;99119.50;6121773;23;20010;-85
2023/11/05 00:18:42;;;;;;;8.23;3.30;;;;;;;7.76;100.00;99141.19;6123444;23;20006;-83
2023/11/05 00:21:07;;;;;;;8.13;3.10;;;;;;;7.53;100.00;99124.09;6121590;23;20104;-84
2023/11/05 00:23:33;;;;;;;8.95;4.38;;;;;;;8.10;100.00;99099.09;6121356;23;20013;-84
2023/11/05 00:25:59;;;;;;;7.53;3.17;;;;;;;8.13;100.00;99126.00;6123274;23;20009;-83
2023/11/05 00:28:24;;;;;;;4.85;2.65;;;;;;;8.43;100.00;99110.03;6122596;23;20337;-85
2023/11/05 00:30:49;;;;;;;6.22;2.97;;;;;;;8.58;100.00;99112.28;6121359;23;20002;-85
2023/11/05 00:33:15;;;;;;;6.70;3.00;;;;;;;8.76;100.00;99114.00;6121161;23;20006;-84
2023/11/05 00:35:44;;;;;;;6.32;2.90;;;;;;;8.78;100.00;99125.22;6121364;23;20502;-84
2023/11/05 00:38:12;;;;;;;4.43;2.80;;;;;;;9.17;100.00;99136.22;6122535;23;20112;-83
2023/11/05 00:40:37;;;;;;;;;;;;;;;8.81;100.00;99143.38;6122399;23;20068;-84
2023/11/05 00:43:06;;;;;;;6.85;3.33;;;;;;;8.87;100.00;99115.06;6122713;23;19912;-83
2023/11/05 00:45:31;;;;;;;;;;;;;;;9.22;100.00;99146.97;6121940;23;20006;-83
2023/11/05 00:47:56;;;;;;;9.45;4.40;;;;;;;9.11;100.00;99137.13;6124579;23;19905;-85
2023/11/05 00:50:23;;;;;;;9.13;4.75;;;;;;;9.28;100.00;99157.75;6126216;23;20013;-83
2023/11/05 00:52:48;;;;;;;8.98;4.55;;;;;;;9.24;100.00;99154.72;6154356;23;20390;-83
2023/11/05 00:55:14;;;;;;;8.07;4.80;;;;;;;8.94;100.00;99149.53;6126012;23;20013;-84
2023/11/05 00:57:41;;;;;;;9.45;5.28;;;;;;;9.25;100.00;99146.53;6125894;23;20009;-84
2023/11/05 01:00:16;;;;;;;9.32;4.55;;;;;;;9.19;100.00;99139.47;6126025;23;20088;-85
2023/11/05 01:02:43;;;;;;;9.25;4.80;;;;;;;9.29;100.00;99159.34;6151891;23;20016;-84
2023/11/05 01:05:08;;;;;;;7.82;4.05;;;;;;;9.14;100.00;99147.34;6152228;23;20068;-84
2023/11/05 01:07:36;;;;;;;10.95;5.20;;;;;;;9.06;100.00;99118.41;6152501;23;20010;-85
2023/11/05 01:10:03;;;;;;;9.65;4.47;;;;;;;8.56;100.00;99111.69;6125888;23;20008;-84
2023/11/05 01:12:29;;;;;;;9.48;4.97;;;;;;;8.63;100.00;99131.00;6125662;23;20359;-83
2023/11/05 01:14:55;;;;;;;8.05;5.03;;;;;;;8.94;100.00;99141.53;6125776;23;20005;-83
2023/11/05 01:17:21;;;;;;;8.73;4.50;;;;;;;8.88;100.00;99113.22;6125864;23;20092;-84
2023/11/05 01:19:47;;;;;;;10.30;5.20;;;;;;;9.05;100.00;99144.22;6125892;23;20016;-83
2023/11/05 01:22:12;;;;;;;9.00;4.75;;;;;;;9.00;100.00;99146.75;6126135;23;20092;-82
2023/11/05 01:24:38;;;;;;;11.32;6.60;;;;;;;8.68;100.00;99095.75;6125692;23;20574;-84
2023/11/05 01:27:03;;;;;;;15.23;8.13;;;;;;;8.71;100.00;99095.31;6125637;23;20005;-87
2023/11/05 01:29:29;;;;;;;12.15;6.05;;;;;;;8.92;100.00;99119.69;6125704;23;20006;-83
2023/11/05 01:31:56;;;;;;;10.50;6.03;;;;;;;8.33;100.00;99130.22;6152244;23;20028;-83
2023/11/05 01:34:21;;;;;;;10.15;5.80;;;;;;;7.40;100.00;99117.09;6125797;23;20006;-83
2023/11/05 01:36:47;;;;;;;7.40;5.00;;;;;;;7.03;100.00;99116.28;6125802;23;20016;-82
2023/11/05 01:39:13;;;;;;;11.23;4.88;;;;;;;7.23;100.00;99090.38;6125499;23;20013;-83
2023/11/05 01:41:38;;;;;;;8.02;4.53;;;;;;;7.87;100.00;99103.28;6125867;23;20015;-84
2023/11/05 01:44:04;;;;;;;10.02;4.70;;;;;;;8.21;100.00;99111.56;6125640;23;20013;-83
2023/11/05 01:46:29;;;;;;;9.55;4.57;;;;;;;7.58;100.00;99055.25;6151691;23;20041;-84
2023/11/05 01:48:56;;;;;;;9.02;4.65;;;;;;;7.98;100.00;99065.31;6151928;23;20451;-84
2023/11/05 01:51:22;;;;;;;8.48;4.28;;;;;;;8.44;100.00;99089.63;6125654;23;20006;-84
2023/11/05 01:53:52;;;;;;;6.90;3.88;;;;;;;8.16;100.00;99093.66;6125437;23;20527;-84
2023/11/05 01:56:20;;;;;;;7.78;3.78;;;;;;;8.24;100.00;99105.81;6151792;23;20010;-84
2023/11/05 01:58:48;;;;;;;6.80;4.30;;;;;;;7.66;100.00;99109.84;6125824;23;20006;-83
2023/11/05 02:01:14;;;;;;;8.75;4.10;;;;;;;7.71;100.00;99103.91;6125653;23;20402;-83
2023/11/05 02:03:40;;;;;;;9.25;4.43;;;;;;;7.86;100.00;99080.41;6125654;23;20388;-84
2023/11/05 02:06:06;;;;;;;8.15;4.65;;;;;;;7.99;100.00;99109.44;6151767;23;20006;-83
2023/11/05 02:08:32;;;;;;;7.75;4.07;;;;;;;8.00;100.00;99095.13;6125464;23;20006;-83
2023/11/05 02:10:58;;;;;;;9.82;4.50;;;;;;;7.74;100.00;99119.34;6125766;23;20292;-82
2023/11/05 02:13:23;;;;;;;7.20;4.10;;;;;;;7.39;100.00;99117.31;6125399;23;20367;-83
2023/11/05 02:15:49;;;;;;;5.93;3.70;;;;;;;7.67;100.00;99116.00;6125436;23;20435;-84
2023/11/05 02:18:14;;;;;;;7.63;3.78;;;;;;;7.83;100.00;99126.00;6125567;23;20006;-86
2023/11/05 02:20:40;;;;;;;7.20;3.85;;;;;;;8.10;100.00;99115.81;6125357;23;20013;-84
2023/11/05 02:23:07;;;;;;;8.13;4.63;;;;;;;8.00;100.00;99134.94;6124917;23;20413;-84
2023/11/05 02:25:33;;;;;;;9.77;5.60;;;;;;;7.62;100.00;99125.44;6125433;23;20013;-84
2023/11/05 02:27:58;;;;;;;12.88;7.90;;;;;;;7.64;100.00;99112.75;6151867;23;20036;-83
2023/11/05 02:30:24;;;;;;;12.20;8.63;;;;;;;8.04;100.00;99122.03;6125726;23;20067;-84
2023/11/05 02:32:51;;;;;;;9.57;6.85;;;;;;;8.39;100.00;99127.44;6125624;23;20340;-83
2023/11/05 02:35:17;;;;;;;8.80;5.78;;;;;;;8.09;100.00;99033.72;6151555;23;20072;-83
2023/11/05 02:37:42;;;;;;;7.72;4.18;;;;;;;8.53;100.00;99106.03;6125242;23;20016;-83
2023/11/05 02:40:10;;;;;;;6.82;3.75;;;;;;;8.16;100.00;99122.09;6125366;23;20010;-84
2023/11/05 02:42:35;;;;;;;6.18;3.70;;;;;;;8.23;100.00;99120.97;6125447;23;20013;-83
2023/11/05 02:45:02;;;;;;;10.75;3.97;;;;;;;8.24;100.00;99087.22;6151375;23;20084;-83
2023/11/05 02:47:27;;;;;;;6.60;3.53;;;;;;;8.17;100.00;99083.84;6125333;23;20012;-84
2023/11/05 02:49:53;;;;;;;6.50;3.85;;;;;;;7.79;100.00;99103.59;6125462;23;20026;-83
2023/11/05 02:52:18;;;;;;;6.47;3.60;;;;;;;7.47;100.00;99077.22;6125440;23;20021;-83
2023/11/05 02:54:44;;;;;;;5.28;3.50;;;;;;;7.83;100.00;99104.75;6125287;23;20040;-84
2023/11/05 02:57:09;;;;;;;6.25;3.33;;;;;;;7.70;100.00;99081.03;6124972;23;20475;-84
2023/11/05 02:59:35;;;;;;;6.40;3.42;;;;;;;7.98;100.00;99097.19;6151190;23;20113;-84
2023/11/05 03:02:00;;;;;;;6.07;3.67;;;;;;;8.50;100.00;99119.75;6152894;23;20009;-83
2023/11/05 03:04:26;;;;;;;6.25;3.92;;;;;;;8.24;100.00;99105.81;6126881;23;20536;-84
2023/11/05 03:06:52;;;;;;;5.57;3.60;;;;;;;8.50;100.00;99127.72;6126819;23;20071;-84
2023/11/05 03:09:20;;;;;;;5.95;3.50;;;;;;;8.62;100.00;99149.81;6127008;23;20096;-84
2023/11/05 03:11:48;;;;;;;6.80;3.97;;;;;;;8.64;100.00;99147.75;6127323;23;20483;-83
2023/11/05 03:14:13;;;;;;;6.57;3.90;;;;;;;7.93;100.00;99160.78;6127005;23;20016;-83
2023/11/05 03:16:40;;;;;;;8.20;5.00;;;;;;;8.05;100.00;99143.06;6127281;23;20006;-84
2023/11/05 03:19:05;;;;;;;9.35;6.05;;;;;;;8.23;100.00;99152.00;6126643;23;20013;-84
2023/11/05 03:21:31;;;;;;;9.18;6.00;;;;;;;8.32;100.00;99134.72;6126599;23;20352;-83
2023/11/05 03:24:01;;;;;;;7.20;4.93;;;;;;;8.23;100.00;99144.03;6125980;23;20005;-84
2023/11/05 03:26:27;;;;;;;7.63;4.63;;;;;;;8.14;100.00;99140.88;6151867;23;20439;-83
2023/11/05 03:28:53;;;;;;;8.13;4.50;;;;;;;7.88;100.00;99160.63;6126607;23;20060;-83
2023/11/05 03:31:19;;;;;;;7.57;4.38;;;;;;;7.23;100.00;99130.16;6126770;23;20013;-84
2023/11/05 03:33:44;;;;;;;7.57;4.10;;;;;;;7.31;100.00;99133.53;6126750;23;20013;-85
2023/11/05 03:36:10;;;;;;;7.78;4.05;;;;;;;7.68;100.00;99160.06;6126640;23;20496;-83
2023/11/05 03:38:36;;;;;;;6.10;4.10;;;;;;;8.19;100.00;99161.44;6126978;23;20486;-83
2023/11/05 03:41:02;;;;;;;7.20;4.60;;;;;;;7.99;100.00;99133.34;6127412;23;20009;-83
2023/11/05 03:43:28;;;;;;;6.65;4.60;;;;;;;8.24;100.00;99175.69;6126708;23;20010;-82
2023/11/05 03:45:55;;;;;;;8.98;5.18;;;;;;;7.39;100.00;99152.59;6126662;23;20013;-83
2023/11/05 03:48:21;;;;;;;7.97;5.07;;;;;;;7.10;100.00;99148.81;6126826;23;20095;-83
2023/11/05 03:50:46;;;;;;;7.28;5.00;;;;;;;7.50;100.00;99169.66;6153250;23;20013;-84
2023/11/05 03:53:14;;;;;;;7.15;4.97;;;;;;;7.79;100.00;99135.44;6126735;23;20001;-85
2023/11/05 03:55:40;;;;;;;6.75;4.93;;;;;;;8.01;100.00;99162.31;6126775;23;20012;-84
2023/11/05 03:58:05;;;;;;;6.30;4.47;;;;;;;7.45;100.00;99124.38;6126861;23;20001;-84
2023/11/05 04:00:31;;;;;;;6.20;3.92;;;;;;;7.39;100.00;99104.06;6152775;23;20148;-84
2023/11/05 04:02:57;;;;;;;6.45;4.10;;;;;;;7.76;100.00;99146.47;6126898;23;20411;-83
2023/11/05 04:05:22;;;;;;;8.13;4.43;;;;;;;7.17;100.00;99106.31;6152821;23;20013;-83
2023/11/05 04:07:49;;;;;;;6.75;4.07;;;;;;;6.90;100.00;99116.38;6153144;23;20015;-83
2023/11/05 04:10:16;;;;;;;6.38;3.85;;;;;;;6.35;100.00;99125.78;6126310;23;20411;-83
2023/11/05 04:12:41;;;;;;;10.38;5.40;;;;;;;6.69;100.00;99155.50;6152134;23;20005;-84
2023/11/05 04:15:07;;;;;;;8.20;4.95;;;;;;;7.04;100.00;99129.28;6126306;23;20079;-83
2023/11/05 04:17:34;;;;;;;10.18;5.45;;;;;;;7.30;100.00;99142.53;6126060;23;20005;-83
2023/11/05 04:19:59;;;;;;;6.47;4.40;;;;;;;7.51;100.00;99151.88;6126035;23;20009;-84
2023/11/05 04:22:25;;;;;;;6.25;4.30;;;;;;;7.52;100.00;99149.03;6152544;23;20005;-84
2023/11/05 04:24:51;;;;;;;5.50;3.88;;;;;;;6.90;100.00;99141.03;6126236;23;20013;-83
2023/11/05 04:27:18;;;;;;;7.68;5.22;;;;;;;6.99;100.00;99115.91;6126320;23;20017;-83
2023/11/05 04:29:44;;;;;;;7.60;4.75;;;;;;;7.24;100.00;99147.66;6126689;23;20006;-84
2023/11/05 04:32:10;;;;;;;7.05;4.20;;;;;;;7.42;100.00;99146.06;6152173;23;20006;-83
2023/11/05 04:34:36;;;;;;;5.85;4.30;;;;;;;6.46;100.00;99118.16;6126132;23;20016;-82
2023/11/05 04:37:01;;;;;;;6.72;4.47;;;;;;;6.65;100.00;99141.06;6151853;23;20017;-83
2023/11/05 04:39:27;;;;;;;7.10;4.32;;;;;;;6.06;100.00;99121.09;6126281;23;20005;-85
2023/11/05 04:41:55;;;;;;;8.35;4.45;;;;;;;6.62;100.00;99115.00;6126161;23;20009;-82
2023/11/05 04:44:21;;;;;;;7.28;4.25;;;;;;;6.38;100.00;99120.06;6126343;23;20005;-84
2023/11/05 04:46:46;;;;;;;5.82;3.33;;;;;;;5.83;100.00;99156.78;6125864;23;20015;-83
2023/11/05 04:49:12;;;;;;;5.53;3.45;;;;;;;5.77;100.00;99147.06;6125842;23;20020;-85
2023/11/05 04:51:41;;;;;;;5.70;3.50;;;;;;;6.38;100.00;99173.03;6126569;23;20009;-83
2023/11/05 04:54:07;;;;;;;6.85;3.42;;;;;;;6.64;100.00;99153.50;6126336;23;20016;-83
2023/11/05 04:56:32;;;;;;;10.85;4.55;;;;;;;6.75;100.00;99151.97;6126348;23;20010;-83
2023/11/05 04:58:58;;;;;;;10.18;6.47;;;;;;;6.66;100.00;99142.69;6126261;23;20459;-83
2023/11/05 05:01:23;;;;;;;12.02;6.07;;;;;;;6.56;100.00;99151.13;6125690;23;20347;-84
2023/11/05 05:03:48;;;;;;;9.45;4.97;;;;;;;5.99;100.00;99140.47;6126124;23;20153;-83
2023/11/05 05:06:14;;;;;;;8.38;5.07;;;;;;;5.85;100.00;99165.34;6126026;23;20709;-82
2023/11/05 05:08:39;;;;;;;6.75;3.78;;;;;;;6.09;100.00;99173.59;6126342;23;20006;-83
2023/11/05 05:11:05;;;;;;;6.15;3.33;;;;;;;6.66;100.00;99190.38;6126018;23;20010;-84
2023/11/05 05:13:31;;;;;;;5.93;3.42;;;;;;;5.79;100.00;99192.63;6152240;23;20005;-85
2023/11/05 05:15:57;;;;;;;5.45;2.92;;;;;;;5.47;100.00;99189.06;6126039;23;20013;-84
2023/11/05 05:18:22;;;;;;;9.40;3.15;;;;;;;5.05;100.00;99199.91;6126291;23;20061;-84
2023/11/05 05:20:48;;;;;;;6.65;2.95;;;;;;;5.45;100.00;99186.59;6125767;23;20006;-84
2023/11/05 05:23:13;;;;;;;6.93;3.28;;;;;;;6.16;100.00;99222.84;6125929;23;20016;-84
2023/11/05 05:25:38;;;;;;;5.10;2.80;;;;;;;6.15;100.00;99215.94;6126269;23;20010;-83
2023/11/05 05:28:04;;;;;;;6.80;3.25;;;;;;;6.46;100.00;99205.56;6126089;23;20407;-82
2023/11/05 05:30:29;;;;;;;6.65;3.50;;;;;;;5.84;100.00;99203.38;6152035;23;20431;-84
2023/11/05 05:32:56;;;;;;;4.97;2.83;;;;;;;5.81;100.00;99236.38;6126028;23;20426;-84
2023/11/05 05:35:22;;;;;;;8.50;4.10;;;;;;;6.07;100.00;99196.81;6151576;23;20012;-83
2023/11/05 05:37:47;;;;;;;7.63;4.50;;;;;;;6.50;100.00;99201.47;6125791;23;20005;-84
2023/11/05 05:40:13;;;;;;;6.30;3.80;;;;;;;6.59;100.00;99194.91;6126245;23;20096;-84
2023/11/05 05:42:40;;;;;;;7.13;3.92;;;;;;;7.01;100.00;99219.06;6125508;23;20009;-84
2023/11/05 05:45:06;;;;;;;7.68;4.95;;;;;;;6.89;100.00;99199.59;6152062;23;20005;-83
2023/11/05 05:47:32;;;;;;;7.32;4.28;;;;;;;6.80;100.00;99206.97;6125804;23;20084;-86
2023/11/05 05:49:57;;;;;;;6.80;3.85;;;;;;;6.87;100.00;99214.91;6125653;23;20020;-84
2023/11/05 05:52:23;;;;;;;6.18;4.03;;;;;;;6.69;100.00;99194.44;6125782;23;20009;-84
2023/11/05 05:54:48;;;;;;;6.28;3.63;;;;;;;7.28;100.00;99194.97;6125978;23;20067;-85
2023/11/05 05:57:14;;;;;;;7.45;4.78;;;;;;;7.55;100.00;99230.81;6125509;23;20428;-85
2023/11/05 05:59:39;;;;;;;16.75;4.10;;;;;;;7.90;100.00;99246.16;6125721;23;20355;-86
2023/11/05 06:02:07;;;;;;;7.32;4.00;;;;;;;7.67;100.00;99216.84;6125619;23;20006;-84
2023/11/05 06:04:34;;;;;;;6.75;4.00;;;;;;;7.69;100.00;99230.69;6151408;23;20415;-83
2023/11/05 06:06:59;;;;;;;7.75;4.88;;;;;;;7.26;100.00;99210.28;6125169;23;20013;-83
2023/11/05 06:09:25;;;;;;;8.73;4.63;;;;;;;7.50;100.00;99203.31;6125543;23;20013;-84
2023/11/05 06:11:50;;;;;;;7.88;4.90;;;;;;;7.82;100.00;99228.69;6125444;23;20006;-83
2023/11/05 06:14:16;;;;;;;12.20;7.15;;;;;;;8.01;100.00;99202.94;6125856;23;20087;-84
2023/11/05 06:16:41;;;;;;;10.73;6.60;;;;;;;8.25;100.00;99206.53;6125695;23;20010;-83
2023/11/05 06:19:07;;;;;;;12.20;6.88;;;;;;;8.19;100.00;99203.94;6126090;23;20009;-84
2023/11/05 06:21:32;;;;;;;9.38;5.70;;;;;;;8.20;100.00;99209.03;6126457;23;20008;-82
2023/11/05 06:23:58;;;;;;;12.02;7.13;;;;;;;8.09;100.00;99217.78;6125372;23;20048;-83
2023/11/05 06:26:26;;;;;;;9.43;5.25;;;;;;;8.49;100.00;99219.13;6125537;23;20087;-82
2023/11/05 06:28:51;;;;;;;10.05;5.43;;;;;;;8.78;100.00;99250.16;6125367;23;20459;-82
2023/11/05 06:31:17;;;;;;;8.48;4.40;;;;;;;8.62;100.00;99229.56;6125560;23;20092;-83
2023/11/05 06:33:43;;;;;;;7.20;4.28;;;;;;;8.99;100.00;99256.84;6125607;23;20006;-84
2023/11/05 06:36:09;;;;;;;7.05;3.90;;;;;;;8.87;100.00;99215.28;6126442;23;20547;-85
2023/11/05 06:38:34;;;;;;;7.63;4.43;;;;;;;9.30;100.00;99207.03;6127033;23;20358;-83
2023/11/05 06:40:59;;;;;;;5.05;3.70;;;;;;;9.61;100.00;99216.47;6126811;23;20337;-85
2023/11/05 06:43:25;;;;;;;5.40;3.70;;;;;;;9.76;100.00;99212.53;6152400;23;20001;-84
2023/11/05 06:45:50;;;;;;;10.95;3.85;;;;;;;10.05;100.00;99198.22;6126793;23;20016;-83
2023/11/05 06:48:16;;;;;;;7.13;3.67;;;;;;;10.30;100.00;99213.13;6152311;23;20028;-83
2023/11/05 06:50:42;;;;;;;7.75;3.88;;;;;;;10.50;100.00;99217.19;6126732;23;20006;-81
2023/11/05 06:53:07;;;;;;;5.65;3.90;;;;;;;10.51;100.00;99197.50;6126677;23;20006;-82
2023/11/05 06:55:32;;;;;;;7.50;4.93;;;;;;;10.78;100.00;99193.16;6126785;23;20006;-81
2023/11/05 06:57:58;;;;;;;9.98;7.40;;;;;;;10.39;100.00;99185.00;6126986;23;20155;-81
2023/11/05 07:00:24;;;;;;;13.60;8.82;;;;;;;10.52;100.00;99167.09;6126892;23;20053;-84
2023/11/05 07:02:50;;;;;;;15.38;10.70;;;;;;;11.06;100.00;99196.81;6126794;23;20148;-86
2023/11/05 07:05:15;;;;;;;12.70;8.45;;;;;;;10.88;100.00;99191.72;6126763;23;20006;-83
2023/11/05 07:07:41;;;;;;;9.80;7.10;;;;;;;11.16;100.00;99198.84;6126711;23;20092;-81
2023/11/05 07:10:10;;;;;;;11.50;6.20;;;;;;;11.00;100.00;99189.78;6126040;23;20052;-81
2023/11/05 07:12:37;;;;;;;8.45;5.93;;;;;;;10.96;100.00;99177.97;6126815;23;20036;-82
2023/11/05 07:15:03;;;;;;;8.60;5.32;;;;;;;11.21;100.00;99189.03;6126551;23;20009;-83
2023/11/05 07:17:29;;;;;;;9.48;4.32;;;;;;;11.24;100.00;99183.22;6126582;23;20006;-82
2023/11/05 07:19:54;;;;;;;6.97;3.95;;;;;;;11.51;100.00;99173.69;6152648;23;20002;-82
2023/11/05 07:22:20;;;;;;;5.60;3.40;;;;;;;11.52;100.00;99181.44;6153032;23;20005;-82
2023/11/05 07:24:45;;;;;;;9.07;6.55;;;;;;;11.68;100.00;99178.97;6153074;23;20017;-84
2023/11/05 07:27:11;;;;;;;4.18;2.65;;;;;;;11.87;100.00;99204.34;6126792;23;20005;-84
2023/11/05 07:29:36;;;;;;;7.15;3.35;;;;;;;11.70;100.00;99176.88;6101990;23;20009;-84
2023/11/05 07:32:02;;;;;;;12.75;9.60;;;;;;;12.04;100.00;99206.97;6126712;23;20009;-84
2023/11/05 07:34:28;;;;;;;5.75;3.13;;;;;;;11.92;100.00;99199.09;6152424;23;20045;-85
2023/11/05 07:36:53;;;;;;;3.72;2.35;;;;;;;11.49;100.00;99157.13;6126273;23;20032;-83
2023/11/05 07:39:19;;;;;;;6.88;2.78;;;;;;;11.66;100.00;99176.56;6152452;23;20009;-85
2023/11/05 07:41:44;;;;;;;5.90;2.65;;;;;;;11.89;100.00;99185.41;6126449;23;20036;-85
2023/11/05 07:44:10;;;;;;;5.70;2.72;;;;;;;11.92;100.00;99198.28;6126377;23;20016;-84
2023/11/05 07:46:36;;;;;;;4.65;2.17;;;;;;;11.87;100.00;99166.94;6126535;23;20083;-85
2023/11/05 07:49:04;;;;;;;3.72;2.00;;;;;;;12.20;100.00;99200.75;6125636;23;20505;-84
2023/11/05 07:51:29;;;;;;;4.63;2.37;;;;;;;12.00;100.00;99174.59;6152157;23;20064;-84
2023/11/05 07:53:55;;;;;;;4.78;2.70;;;;;;;12.41;98.50;99172.34;6126127;23;20431;-83
2023/11/05 07:56:21;;;;;;;3.58;2.13;;;;;;;12.44;98.64;99176.38;6125303;23;20009;-84
2023/11/05 07:58:48;;;;;;;4.60;2.10;;;;;;;12.48;100.00;99164.13;6125448;23;20006;-83
2023/11/05 08:01:14;;;;;;;5.23;2.87;;;;;;;12.68;97.83;99166.19;6151408;23;20001;-82
2023/11/05 08:03:42;;;;;;;5.18;2.22;;;;;;;13.21;94.81;99207.25;6125062;23;20001;-85
2023/11/05 08:06:08;;;;;;;;;;;;;;;13.22;94.24;99213.44;6151886;23;20016;-84
2023/11/05 08:08:34;;;;;;;4.93;2.22;;;;;;;13.05;97.21;99184.13;6125534;23;19904;-79
2023/11/05 08:10:59;;;;;;;4.18;2.33;;;;;;;13.12;96.62;99191.94;6125932;23;20017;-80
2023/11/05 08:13:25;;;;;;;5.10;2.38;;;;;;;13.07;95.50;99193.50;6151581;23;20036;-79
2023/11/05 08:15:51;;;;;;;6.53;2.40;;;;;;;13.30;92.59;99166.66;6125832;23;20063;-82
2023/11/05 08:18:17;;;;;;;4.40;2.55;;;;;;;13.63;96.64;99181.59;6125748;23;20016;-81
2023/11/05 08:20:43;;;;;;;6.18;2.67;;;;;;;13.54;95.95;99162.50;6152049;23;20092;-81
2023/11/05 08:23:08;;;;;;;4.93;2.58;;;;;;;13.93;92.46;99167.47;6125955;23;20084;-83
2023/11/05 08:25:34;;;;;;;4.93;2.40;;;;;;;13.97;91.23;99165.09;6151839;23;20002;-81
2023/11/05 08:27:59;;;;;;;6.13;2.53;;;;;;;14.24;89.13;99159.53;6125681;23;20121;-80
2023/11/05 08:30:25;;;;;;;4.95;2.25;;;;;;;13.81;92.21;99161.53;6151934;23;20002;-82
2023/11/05 08:32:51;;;;;;;4.30;1.92;;;;;;;13.81;89.27;99166.91;6151446;23;20076;-80
2023/11/05 08:35:18;;;;;;;9.20;3.70;;;;;;;13.73;88.33;99136.09;6152177;23;20064;-81
2023/11/05 08:37:48;;;;;;;3.90;2.20;;;;;;;14.18;90.52;99166.78;6152036;23;20002;-82
2023/11/05 08:40:15;;;;;;;3.08;1.83;;;;;;;14.36;89.04;99157.41;6126324;23;20013;-81
2023/11/05 08:42:41;;;;;;;4.05;2.28;;;;;;;14.52;93.38;99142.13;6125804;23;20084;-82
2023/11/05 08:45:07;;;;;;;2.97;1.92;;;;;;;14.50;89.73;99141.59;6152169;23;20001;-81
2023/11/05 08:47:33;;;;;;;4.63;2.30;;;;;;;14.34;89.28;99154.19;6125705;23;20040;-82
2023/11/05 08:49:59;;;;;;;8.45;2.20;;;;;;;14.50;86.47;99148.84;6124914;23;20021;-81
2023/11/05 08:52:25;;;;;;;7.38;2.60;;;;;;;14.80;87.49;99154.25;6151307;23;20060;-84
2023/11/05 08:54:51;;;;;;;9.30;2.33;;;;;;;14.63;89.08;99134.94;6151469;23;20014;-81
2023/11/05 08:57:16;;;;;;;6.25;3.80;;;;;;;14.60;91.47;99125.53;6151319;23;20016;-80
2023/11/05 08:59:42;;;;;;;5.28;2.90;;;;;;;15.11;86.91;99148.06;6125342;23;20005;-81
2023/11/05 09:02:09;;;;;;;5.45;2.63;;;;;;;15.18;85.28;99122.53;6154458;23;20054;-82
2023/11/05 09:04:35;;;;;;;4.10;2.03;;;;;;;15.25;83.34;99125.72;6160981;23;20002;-82
2023/11/05 09:07:01;;;;;;;3.40;2.20;;;;;;;15.17;85.43;99112.06;6160278;23;20052;-82
2023/11/05 09:09:27;;;;;;;4.57;2.10;;;;;;;15.66;85.48;99125.59;6158644;23;20015;-83
2023/11/05 09:11:52;;;;;;;5.75;2.58;;;;;;;15.56;89.87;99106.81;6161045;23;20037;-81
2023/11/05 09:14:18;;;;;;;3.78;2.30;;;;;;;15.44;86.18;99106.34;6134755;23;20068;-81
2023/11/05 09:16:43;;;;;;;6.45;2.30;;;;;;;15.12;85.11;99045.75;6160874;23;20002;-81
2023/11/05 09:19:09;;;;;;;3.58;2.25;;;;;;;15.35;87.75;99103.41;6161010;23;20005;-81
2023/11/05 09:21:35;;;;;;;4.25;2.30;;;;;;;15.46;84.74;99085.38;6159994;23;20012;-81
2023/11/05 09:24:00;;;;;;;4.43;2.58;;;;;;;15.52;83.97;99081.59;6133346;23;20436;-85
2023/11/05 09:26:26;;;;;;;4.50;2.20;;;;;;;15.71;83.04;99094.41;6157169;23;20009;-82
2023/11/05 09:28:51;;;;;;;4.70;2.40;;;;;;;16.27;78.53;99073.38;6156622;23;19998;-82
2023/11/05 09:31:17;;;;;;;4.70;2.28;;;;;;;16.02;81.53;99066.31;6156398;23;20032;-82
2023/11/05 09:33:43;;;;;;;4.00;1.70;;;;;;;16.30;80.44;99090.03;6156205;23;20455;-80
2023/11/05 09:36:08;;;;;;;5.95;1.90;;;;;;;16.68;77.67;99069.56;6156818;23;20014;-83
2023/11/05 09:38:34;;;;;;;7.13;2.15;;;;;;;16.94;80.11;99047.78;6155777;23;20025;-80
2023/11/05 09:41:00;;;;;;;3.42;1.73;;;;;;;16.65;78.52;99037.78;6155269;23;20080;-80
2023/11/05 09:43:25;;;;;;;4.50;1.60;;;;;;;16.52;76.74;99054.63;6154817;23;20005;-80
2023/11/05 09:45:52;;;;;;;3.33;1.65;;;;;;;16.24;74.09;99014.78;6153893;23;20016;-79
2023/11/05 09:48:18;;;;;;;3.83;1.75;;;;;;;16.89;75.44;99007.44;6152710;23;20021;-83
2023/11/05 09:50:44;;;;;;;5.32;2.08;;;;;;;17.66;72.31;99039.63;6152652;23;20336;-81
2023/11/05 09:53:14;;;;;;;4.00;1.92;;;;;;;17.41;75.88;99008.44;6151803;23;20446;-80
2023/11/05 09:55:41;;;;;;;4.22;2.13;;;;;;;17.98;74.20;99022.75;6151617;23;20012;-80
2023/11/05 09:58:11;;;;;;;3.08;1.83;;;;;;;17.93;72.86;98986.97;6125434;23;20009;-81
2023/11/05 10:00:37;;;;;;;3.28;1.40;;;;;;;18.01;74.58;98995.19;6125407;23;20013;-80
2023/11/05 10:03:07;;;;;;;2.53;1.20;;;;;;;18.12;73.09;99013.91;6151105;23;20006;-81
2023/11/05 10:05:37;;;;;;;3.40;1.65;;;;;;;18.22;72.33;98987.53;6151133;23;20017;-81
2023/11/05 10:08:07;;;;;;;3.70;1.60;;;;;;;18.23;71.32;98993.78;6151222;23;20005;-81
2023/11/05 10:10:34;;;;;;;3.58;1.40;;;;;;;18.50;70.72;98966.03;6151586;23;20025;-81
2023/11/05 10:13:00;;;;;;;1.60;1.10;;;;;;;18.50;70.71;98982.22;6152288;23;20001;-78
2023/11/05 10:15:25;;;;;;;4.13;1.55;;;;;;;18.69;67.39;98963.22;6152150;23;20017;-81
2023/11/05 10:17:54;;;;;;;3.58;1.77;;;;;;;19.16;65.04;98966.63;6152679;23;20016;-81
2023/11/05 10:20:23;;;;;;;4.35;1.67;;;;;;;19.31;63.09;98986.34;6152160;23;20474;-82
2023/11/05 10:23:01;;;;;;;1.42;1.02;;;;;;;19.48;64.85;98984.59;6153072;23;20005;-82
2023/11/05 10:25:27;;;;;;;5.10;1.35;;;;;;;19.93;59.65;98969.56;6127060;23;20006;-82
2023/11/05 10:27:53;;;;;;;5.43;2.63;;;;;;;20.21;57.45;98973.75;6126963;23;20005;-82
2023/11/05 10:30:22;;;;;;;1.42;0.90;;;;;;;20.32;53.30;98976.19;6152040;23;20084;-81
2023/11/05 10:32:49;;;;;;;1.20;0.60;;;;;;;20.46;54.10;98974.19;6126521;23;20005;-81
2023/11/05 10:35:19;;;;;;;1.85;0.57;;;;;;;20.69;49.33;98971.44;6126116;23;20089;-81
2023/11/05 10:37:47;;;;;;;2.97;0.73;;;;;;;20.06;51.73;98944.34;6126399;23;20436;-83
2023/11/05 10:40:14;;;;;;;2.00;0.93;;;;;;;20.53;52.56;98935.81;6126651;23;20007;-83
2023/11/05 10:42:40;;;;;;;1.20;0.57;;;;;;;20.63;48.52;98949.13;6151915;23;20045;-81
2023/11/05 10:45:08;;;;;;;2.35;0.90;;;;;;;20.56;52.40;98925.16;6152107;23;20349;-81
2023/11/05 10:47:35;;;;;;;1.88;0.98;;;;;;;20.92;48.87;98942.34;6152401;23;20032;-80
2023/11/05 10:50:04;;;;;;;4.28;0.70;;;;;;;20.47;50.71;98908.91;6125298;23;20084;-83
2023/11/05 10:52:32;;;;;;;1.75;0.60;;;;;;;20.45;49.26;98911.13;6151733;23;20068;-80
2023/11/05 10:55:08;;;;;;;1.25;0.80;;;;;;;21.26;49.37;98947.06;6152122;23;20077;-79
2023/11/05 10:57:43;;;;;;;1.52;1.00;;;;;;;21.30;52.78;98925.53;6151269;23;20084;-82
2023/11/05 11:00:17;;;;;;;7.95;1.77;;;;;;;21.70;47.29;98944.38;6125355;23;20006;-81
2023/11/05 11:02:43;;;;;;;20.65;14.15;;;;;;;21.99;43.98;98954.59;6150441;23;20483;-78
2023/11/05 11:05:09;;;;;;;3.45;1.10;;;;;;;22.18;43.72;98913.50;6151847;23;20012;-80
2023/11/05 11:07:38;;;;;;;1.95;0.75;;;;;;;22.71;41.50;98922.25;6151008;23;20370;-79
2023/11/05 11:10:06;;;;;;;1.25;0.57;;;;;;;22.59;43.61;98921.03;6151435;23;20005;-81
2023/11/05 11:12:33;;;;;;;1.42;0.63;;;;;;;22.16;42.90;98915.72;6151045;23;20081;-80
2023/11/05 11:14:59;;;;;;;2.65;1.17;;;;;;;22.60;42.02;98913.69;6150710;23;20013;-80
2023/11/05 11:17:37;;;;;;;1.40;0.60;;;;;;;22.40;45.26;98909.78;6151214;23;20010;-80
2023/11/05 11:20:15;;;;;;;;;;;;;;;22.26;42.47;98907.25;6151961;23;20005;-80
2023/11/05 11:22:45;;;;;;;2.28;0.43;;;;;;;22.29;42.11;98886.81;6150696;23;19909;-80
2023/11/05 11:25:14;;;;;;;1.58;0.80;;;;;;;22.47;43.87;98896.47;6151192;23;20032;-79
2023/11/05 11:27:40;;;;;;;2.95;0.70;;;;;;;22.54;44.28;98871.53;6150725;23;20001;-80